Time;durP1;ratioP1;P1;durP2;ratioP2;P2;SDS_P1;SDS_P2;PMS_P1;PMS_P2;Temp;Humidity;BMP_temperature;BMP_pressure;BME280_temperature;BME280_humidity;BME280_pressure;Samples;Min_cycle;Max_cycle;Signal;HPM_P1;HPM_P2
2022/05/28 00:01:10;;;;;;;3.77;1.20;;;20.30;55.00;;;;;;5011782;28;20256;-93
2022/05/28 00:04:04;;;;;;;3.43;1.30;;;20.30;55.10;;;;;;5002829;28;20596;-92
2022/05/28 00:06:33;;;;;;;3.40;1.27;;;20.30;55.10;;;;;;5009581;28;20453;-93
2022/05/28 00:09:49;;;;;;;2.30;1.27;;;20.30;55.10;;;;;;5005926;28;20286;-92
2022/05/28 00:12:29;;;;;;;2.07;1.27;;;20.30;55.10;;;;;;5001505;28;20397;-92
2022/05/28 00:14:58;;;;;;;2.07;1.10;;;20.30;55.10;;;;;;5002062;28;20472;-92
2022/05/28 00:17:33;;;;;;;2.93;1.10;;;20.20;55.10;;;;;;5016224;28;20177;-93
2022/05/28 00:19:59;;;;;;;1.10;1.00;;;20.20;55.10;;;;;;4991757;28;20188;-92
2022/05/28 00:22:25;;;;;;;1.43;1.10;;;20.30;55.10;;;;;;5008681;28;20218;-92
2022/05/28 00:25:17;;;;;;;2.30;1.20;;;20.20;55.10;;;;;;5001009;28;20340;-92
2022/05/28 00:27:43;;;;;;;2.97;1.23;;;20.20;55.10;;;;;;5007616;28;20317;-92
2022/05/28 00:30:12;;;;;;;2.30;1.20;;;20.20;55.10;;;;;;4993741;28;20564;-92
2022/05/28 00:32:38;;;;;;;2.07;1.10;;;20.20;55.10;;;;;;5011276;28;20513;-92
2022/05/28 00:35:05;;;;;;;1.90;1.10;;;20.20;55.10;;;;;;5018469;28;20201;-92
2022/05/28 00:37:31;;;;;;;1.43;1.00;;;20.20;55.10;;;;;;4997582;28;20175;-92
2022/05/28 00:39:57;;;;;;;2.97;1.40;;;20.10;55.10;;;;;;5016552;28;20235;-92
2022/05/28 00:42:23;;;;;;;2.10;1.10;;;20.20;55.10;;;;;;5019746;28;20556;-92
2022/05/28 00:51:40;;;;;;;2.17;1.13;;;20.10;55.20;;;;;;5027608;28;20263;-92
2022/05/28 00:54:08;;;;;;;1.93;1.20;;;20.10;55.20;;;;;;5006836;28;20439;-92
2022/05/28 00:56:35;;;;;;;1.70;1.07;;;20.10;55.20;;;;;;5018334;28;20478;-92
2022/05/28 00:59:01;;;;;;;1.50;1.00;;;20.10;55.20;;;;;;5008408;28;20183;-92
2022/05/28 01:01:29;;;;;;;1.90;1.00;;;20.10;55.20;;;;;;4995634;28;20176;-92
2022/05/28 01:04:21;;;;;;;1.33;0.93;;;20.10;55.20;;;;;;5017543;28;20274;-92
2022/05/28 01:07:09;;;;;;;1.07;0.90;;;20.10;55.20;;;;;;5021451;28;20203;-92
2022/05/28 01:10:05;;;;;;;1.73;1.10;;;20.00;55.20;;;;;;5029126;28;20477;-92
2022/05/28 01:12:45;;;;;;;1.80;1.20;;;20.10;55.20;;;;;;5027531;28;20203;-92
2022/05/28 01:15:18;;;;;;;1.20;1.00;;;20.00;55.20;;;;;;5019702;28;20334;-92
2022/05/28 01:18:01;;;;;;;2.30;1.10;;;20.00;55.20;;;;;;5007948;28;20249;-92
2022/05/28 01:20:35;;;;;;;1.47;1.10;;;20.00;55.20;;;;;;5021071;28;20174;-91
2022/05/28 01:23:10;;;;;;;2.00;1.00;;;20.00;55.20;;;;;;5019331;28;20173;-92
2022/05/28 01:25:58;;;;;;;2.33;1.10;;;20.00;55.20;;;;;;5030119;28;20226;-92
2022/05/28 01:28:57;;;;;;;2.33;1.00;;;20.00;55.20;;;;;;5008146;28;20176;-93
2022/05/28 01:31:35;;;;;;;1.97;1.10;;;20.00;55.20;;;;;;5012292;28;20179;-92
2022/05/28 01:34:19;;;;;;;1.90;1.10;;;19.90;55.20;;;;;;4988237;28;20172;-92
2022/05/28 01:36:49;;;;;;;1.93;1.27;;;19.90;55.20;;;;;;5004341;28;20585;-93
2022/05/28 01:42:51;;;;;;;1.60;1.20;;;19.90;55.20;;;;;;5027436;28;20260;-92
2022/05/28 01:45:20;;;;;;;1.00;0.90;;;19.90;55.20;;;;;;5016159;28;20176;-92
2022/05/28 01:47:53;;;;;;;2.23;1.00;;;19.90;55.20;;;;;;4968332;28;20202;-92
2022/05/28 01:50:22;;;;;;;1.97;1.20;;;19.90;55.20;;;;;;4999697;28;20169;-92
2022/05/28 01:52:48;;;;;;;3.63;1.00;;;19.90;55.30;;;;;;5014863;28;20229;-93
2022/05/28 01:55:16;;;;;;;2.40;1.30;;;19.90;55.30;;;;;;5004821;28;20166;-92
2022/05/28 01:57:42;;;;;;;2.37;1.10;;;19.90;55.20;;;;;;4983938;28;20179;-93
2022/05/28 02:00:12;;;;;;;1.60;1.00;;;19.80;55.20;;;;;;5008859;28;20180;-92
2022/05/28 02:02:38;;;;;;;2.17;1.30;;;19.80;55.20;;;;;;5007098;28;20172;-92
2022/05/28 02:05:05;;;;;;;3.20;1.10;;;19.80;55.20;;;;;;5003649;28;20259;-93
2022/05/28 02:07:31;;;;;;;3.53;1.40;;;19.80;55.20;;;;;;5004852;28;20207;-93
2022/05/28 02:10:12;;;;;;;1.60;1.00;;;19.80;55.20;;;;;;5004246;28;20176;-93
2022/05/28 02:13:11;;;;;;;2.50;1.13;;;19.80;55.40;;;;;;4997786;28;20473;-93
2022/05/28 02:15:44;;;;;;;3.27;1.20;;;19.80;55.30;;;;;;5006643;28;20448;-93
2022/05/28 02:21:39;;;;;;;2.63;1.30;;;19.80;55.30;;;;;;5026535;28;20247;-93
2022/05/28 02:24:28;;;;;;;1.83;1.00;;;19.70;55.30;;;;;;5010884;28;20909;-93
2022/05/28 02:26:58;;;;;;;1.23;0.90;;;19.70;55.30;;;;;;4996601;28;20579;-93
2022/05/28 02:29:25;;;;;;;2.33;1.20;;;19.70;55.30;;;;;;4990497;28;20179;-93
2022/05/28 02:31:50;;;;;;;3.30;1.47;;;19.70;55.30;;;;;;5005030;28;20171;-93
2022/05/28 02:34:19;;;;;;;3.00;1.20;;;19.70;55.30;;;;;;5011278;28;20236;-93
2022/05/28 02:37:31;;;;;;;3.17;1.30;;;19.70;55.30;;;;;;4997979;28;20449;-93
2022/05/28 02:40:00;;;;;;;1.80;1.00;;;19.70;55.30;;;;;;5001637;28;20175;-93
2022/05/28 02:42:27;;;;;;;3.30;1.20;;;19.70;55.30;;;;;;5014041;28;20181;-93
2022/05/28 02:44:54;;;;;;;3.60;1.10;;;19.70;55.30;;;;;;5009502;28;20181;-93
2022/05/28 02:47:20;;;;;;;2.07;1.10;;;19.70;55.30;;;;;;5007163;28;20579;-93
2022/05/28 02:49:46;;;;;;;2.20;1.00;;;19.70;55.40;;;;;;5009568;28;20190;-93
2022/05/28 02:52:12;;;;;;;1.47;1.00;;;19.60;55.30;;;;;;4996089;28;20284;-93
2022/05/28 02:54:38;;;;;;;2.30;1.10;;;19.60;55.40;;;;;;5014407;28;20170;-93
2022/05/28 02:57:48;;;;;;;2.67;1.07;;;19.60;55.30;;;;;;5005204;28;20733;-93
2022/05/28 03:00:15;;;;;;;1.60;1.03;;;19.60;55.30;;;;;;5022775;28;20181;-93
2022/05/28 03:02:42;;;;;;;1.40;1.10;;;19.60;55.40;;;;;;5020579;28;20183;-92
2022/05/28 03:05:08;;;;;;;1.80;1.00;;;19.60;55.40;;;;;;5014385;28;20195;-93
2022/05/28 03:07:44;;;;;;;1.40;1.00;;;19.60;55.40;;;;;;5019084;28;20187;-93
2022/05/28 03:10:11;;;;;;;1.63;1.07;;;19.60;55.80;;;;;;5012718;28;20240;-93
2022/05/28 03:12:38;;;;;;;1.40;0.93;;;19.60;55.40;;;;;;5000881;28;20213;-93
2022/05/28 03:15:05;;;;;;;2.40;1.23;;;19.60;55.40;;;;;;4997838;28;20376;-93
2022/05/28 03:18:17;;;;;;;1.93;1.30;;;19.60;55.40;;;;;;5013627;28;20186;-93
2022/05/28 03:20:42;;;;;;;2.37;1.20;;;19.60;55.40;;;;;;5003081;28;20173;-93
2022/05/28 03:23:08;;;;;;;1.90;0.87;;;19.50;55.40;;;;;;5003108;28;20177;-92
2022/05/28 03:25:34;;;;;;;1.30;1.20;;;19.50;55.40;;;;;;5012744;28;20206;-92
2022/05/28 03:28:04;;;;;;;2.00;1.20;;;19.50;55.40;;;;;;4986828;28;20206;-92
2022/05/28 03:30:30;;;;;;;1.60;1.10;;;19.50;55.40;;;;;;4998701;28;20472;-93
2022/05/28 03:32:55;;;;;;;2.47;1.10;;;19.50;55.30;;;;;;5011988;28;20188;-92
2022/05/28 03:35:21;;;;;;;1.57;1.00;;;19.50;55.40;;;;;;5002269;28;20192;-93
2022/05/28 03:37:47;;;;;;;1.87;1.20;;;19.50;55.40;;;;;;5010768;28;20726;-92
2022/05/28 03:41:10;;;;;;;2.20;1.07;;;19.50;55.40;;;;;;5007471;28;20182;-92
2022/05/28 03:43:45;;;;;;;2.23;1.00;;;19.50;55.40;;;;;;5009803;28;20171;-93
2022/05/28 03:46:42;;;;;;;1.77;1.10;;;19.40;55.30;;;;;;5011458;28;20215;-92
2022/05/28 03:49:19;;;;;;;1.93;1.00;;;19.40;55.40;;;;;;5003291;28;20636;-92
2022/05/28 03:51:44;;;;;;;2.17;1.07;;;19.40;55.40;;;;;;5008596;28;20188;-93
2022/05/28 03:54:10;;;;;;;1.93;0.97;;;19.40;55.30;;;;;;5004173;28;20171;-93
2022/05/28 03:56:39;;;;;;;2.27;1.10;;;19.40;55.30;;;;;;5016678;28;20178;-93
2022/05/28 03:59:06;;;;;;;2.03;0.83;;;19.40;55.30;;;;;;5001115;28;20185;-93
2022/05/28 04:01:33;;;;;;;1.20;1.00;;;19.40;55.30;;;;;;5013100;28;20190;-93
2022/05/28 04:04:14;;;;;;;1.60;1.03;;;19.50;55.30;;;;;;5009744;28;20179;-93
2022/05/28 04:10:11;;;;;;;1.80;1.03;;;19.40;55.30;;;;;;4987293;28;20206;-93
2022/05/28 04:12:37;;;;;;;1.70;1.00;;;19.40;55.30;;;;;;4966656;28;20483;-93
2022/05/28 04:15:03;;;;;;;1.90;1.00;;;19.40;55.30;;;;;;4958739;28;20490;-93
2022/05/28 04:17:29;;;;;;;1.43;1.00;;;19.40;55.30;;;;;;4976976;28;20273;-93
2022/05/28 04:19:55;;;;;;;2.03;1.20;;;19.40;55.30;;;;;;4963666;28;20186;-93
2022/05/28 04:25:43;;;;;;;1.90;1.10;;;19.40;55.30;;;;;;4979087;28;20270;-92
2022/05/28 04:28:10;;;;;;;2.17;1.07;;;19.40;55.20;;;;;;4963325;28;20219;-93
2022/05/28 04:30:36;;;;;;;1.60;1.20;;;19.40;55.30;;;;;;4966595;28;20180;-92
2022/05/28 04:33:02;;;;;;;1.67;0.90;;;19.40;55.20;;;;;;4964370;28;20188;-93
2022/05/28 04:35:28;;;;;;;1.40;0.93;;;19.40;55.20;;;;;;4959890;28;20213;-93
2022/05/28 04:37:54;;;;;;;1.43;1.10;;;19.40;55.20;;;;;;4997562;28;20191;-93
2022/05/28 04:40:20;;;;;;;1.77;1.10;;;19.40;55.20;;;;;;4996072;28;20626;-92
2022/05/28 04:42:46;;;;;;;1.37;1.00;;;19.40;55.20;;;;;;4971948;28;20579;-92
2022/05/28 04:45:13;;;;;;;1.80;1.10;;;19.40;55.10;;;;;;5000411;28;20176;-92
2022/05/28 04:47:40;;;;;;;1.23;1.00;;;19.40;55.10;;;;;;5002829;28;20250;-93
2022/05/28 04:53:28;;;;;;;1.63;1.07;;;19.40;55.00;;;;;;5008767;28;20203;-92
2022/05/28 04:55:57;;;;;;;2.00;0.97;;;19.40;55.00;;;;;;4994622;28;20236;-93
2022/05/28 04:58:28;;;;;;;3.20;1.47;;;19.40;55.00;;;;;;5008167;28;20249;-93
2022/05/28 05:01:20;;;;;;;1.87;1.03;;;19.40;54.90;;;;;;5005622;28;20180;-93
2022/05/28 05:10:41;;;;;;;1.57;1.20;;;19.40;54.90;;;;;;4939892;28;20488;-93
2022/05/28 05:13:08;;;;;;;1.63;0.97;;;19.40;54.90;;;;;;4989054;28;20198;-93
2022/05/28 05:15:34;;;;;;;1.93;1.00;;;19.50;54.80;;;;;;5003529;28;20191;-93
2022/05/28 05:17:59;;;;;;;1.30;0.90;;;19.50;54.80;;;;;;4997842;28;20174;-92
2022/05/28 05:20:37;;;;;;;1.60;1.10;;;19.60;54.70;;;;;;5004126;28;20454;-92
2022/05/28 05:23:04;;;;;;;1.70;1.10;;;19.60;54.70;;;;;;4989746;28;20578;-93
2022/05/28 05:25:32;;;;;;;4.27;1.00;;;19.60;54.60;;;;;;5008786;28;20182;-94
2022/05/28 05:27:57;;;;;;;2.40;1.10;;;19.60;54.60;;;;;;5011561;28;20224;-92
2022/05/28 05:30:23;;;;;;;1.20;0.97;;;19.60;54.50;;;;;;5014647;28;20172;-92
2022/05/28 05:37:08;;;;;;;1.80;1.00;;;19.60;54.50;;;;;;5005549;28;20508;-93
2022/05/28 05:39:35;;;;;;;1.90;1.00;;;19.60;54.50;;;;;;5015509;28;20205;-93
2022/05/28 05:48:45;;;;;;;1.43;1.00;;;19.60;54.50;;;;;;5034053;28;20199;-92
2022/05/28 05:51:16;;;;;;;1.30;0.90;;;19.60;54.50;;;;;;5012687;28;20558;-93
2022/05/28 05:53:42;;;;;;;1.10;0.83;;;19.60;54.50;;;;;;5013332;28;20273;-93
2022/05/28 05:56:08;;;;;;;1.53;1.10;;;19.70;54.30;;;;;;5015693;28;20173;-92
2022/05/28 05:58:35;;;;;;;1.43;1.00;;;19.70;54.10;;;;;;4999906;28;20172;-93
2022/05/28 06:01:09;;;;;;;2.10;1.03;;;19.80;54.00;;;;;;5014072;28;20187;-93
2022/05/28 06:03:36;;;;;;;1.90;1.07;;;19.80;53.90;;;;;;5009554;28;20282;-92
2022/05/28 06:06:12;;;;;;;1.10;1.00;;;19.90;53.80;;;;;;5004248;28;20211;-93
2022/05/28 06:08:38;;;;;;;1.67;1.00;;;19.90;53.70;;;;;;4989430;28;20336;-93
2022/05/28 06:11:16;;;;;;;1.50;1.10;;;19.90;53.60;;;;;;5019029;28;20171;-93
2022/05/28 06:13:42;;;;;;;1.60;1.03;;;20.10;53.20;;;;;;5023164;28;20180;-93
2022/05/28 06:16:08;;;;;;;1.40;1.10;;;20.20;53.10;;;;;;5020886;28;20172;-93
2022/05/28 06:18:34;;;;;;;2.23;1.27;;;20.30;52.80;;;;;;5015424;28;20182;-93
2022/05/28 06:21:01;;;;;;;2.03;1.10;;;20.30;52.80;;;;;;5022125;28;20193;-93
2022/05/28 06:23:27;;;;;;;2.73;1.17;;;20.40;52.60;;;;;;5017961;28;20558;-92
2022/05/28 06:25:56;;;;;;;1.57;1.07;;;20.40;52.50;;;;;;4996703;28;20395;-93
2022/05/28 06:35:09;;;;;;;1.67;0.93;;;21.00;51.40;;;;;;5035370;28;20190;-94
2022/05/28 06:37:58;;;;;;;1.37;1.00;;;21.10;51.20;;;;;;5016473;28;20219;-93
2022/05/28 06:43:46;;;;;;;1.40;1.00;;;20.80;51.40;;;;;;5039969;28;20172;-94
2022/05/28 06:46:12;;;;;;;1.83;1.00;;;20.70;51.60;;;;;;4997666;28;20208;-93
2022/05/28 06:48:38;;;;;;;1.33;1.10;;;20.60;51.80;;;;;;5009338;28;20219;-93
2022/05/28 06:51:08;;;;;;;1.60;1.20;;;20.50;51.90;;;;;;5016158;28;20231;-93
2022/05/28 06:53:38;;;;;;;1.23;0.90;;;20.50;52.10;;;;;;5001785;28;20173;-93
2022/05/28 06:56:06;;;;;;;1.60;0.90;;;20.40;52.10;;;;;;5016656;28;20264;-93
2022/05/28 06:58:32;;;;;;;1.10;0.83;;;20.40;52.20;;;;;;5018348;28;20171;-93
2022/05/28 07:00:59;;;;;;;4.07;1.10;;;20.50;52.20;;;;;;5010204;28;20187;-93
2022/05/28 07:03:29;;;;;;;1.50;1.00;;;20.50;52.10;;;;;;5010857;28;20181;-92
2022/05/28 07:05:56;;;;;;;1.60;0.90;;;20.60;51.90;;;;;;5010298;28;20200;-93
2022/05/28 07:08:35;;;;;;;1.50;0.90;;;20.80;51.70;;;;;;5016554;28;20223;-94
2022/05/28 07:17:45;;;;;;;1.10;0.90;;;21.10;51.30;;;;;;5037199;28;20228;-93
2022/05/28 07:20:11;;;;;;;1.77;1.10;;;21.20;50.90;;;;;;5020062;28;20185;-93
2022/05/28 07:22:37;;;;;;;2.57;1.10;;;21.20;51.00;;;;;;5022696;28;20175;-94
2022/05/28 07:25:03;;;;;;;1.37;0.97;;;21.10;51.10;;;;;;5031737;28;20196;-94
2022/05/28 07:27:29;;;;;;;1.53;1.00;;;21.40;50.70;;;;;;5027771;28;20205;-94
2022/05/28 07:29:56;;;;;;;1.10;0.90;;;21.70;50.30;;;;;;5028330;28;20172;-94
2022/05/28 07:32:24;;;;;;;1.03;0.93;;;21.60;50.20;;;;;;5007230;28;20254;-93
2022/05/28 07:34:51;;;;;;;2.40;1.00;;;21.50;50.30;;;;;;5023042;28;20209;-93
2022/05/28 07:37:18;;;;;;;1.93;1.20;;;21.40;50.70;;;;;;5027125;28;20186;-93
2022/05/28 07:39:43;;;;;;;2.60;1.07;;;21.20;50.80;;;;;;5031945;28;20161;-94
2022/05/28 07:42:09;;;;;;;0.97;0.87;;;21.20;51.10;;;;;;5024654;28;20191;-92
2022/05/28 07:44:35;;;;;;;1.50;1.00;;;21.10;51.10;;;;;;5027498;28;20242;-93
2022/05/28 07:47:08;;;;;;;2.13;0.97;;;21.20;51.20;;;;;;5025767;28;20217;-94
2022/05/28 07:49:39;;;;;;;4.43;1.30;;;21.20;51.10;;;;;;5025390;28;20177;-93
2022/05/28 07:52:06;;;;;;;2.10;1.07;;;21.20;51.10;;;;;;5025920;28;20178;-93
2022/05/28 07:54:32;;;;;;;1.80;1.00;;;21.20;51.30;;;;;;5028578;28;20177;-93
2022/05/28 07:56:58;;;;;;;2.60;1.17;;;21.10;51.40;;;;;;5028557;28;20288;-92
2022/05/28 07:59:24;;;;;;;1.30;0.90;;;21.10;51.50;;;;;;5018345;28;20246;-93
2022/05/28 08:01:50;;;;;;;2.03;1.00;;;21.20;51.40;;;;;;5002935;28;20174;-94
2022/05/28 08:04:16;;;;;;;3.27;1.20;;;21.40;51.00;;;;;;5009280;28;20222;-93
2022/05/28 08:06:42;;;;;;;1.43;1.10;;;21.70;50.60;;;;;;5006768;28;20204;-92
2022/05/28 08:09:10;;;;;;;3.07;1.40;;;21.90;50.20;;;;;;5013909;28;20280;-93
2022/05/28 08:11:35;;;;;;;1.43;1.10;;;22.10;49.90;;;;;;5015227;28;20193;-92
2022/05/28 08:14:02;;;;;;;2.00;1.10;;;22.30;49.60;;;;;;5017353;28;20252;-94
2022/05/28 08:16:28;;;;;;;3.50;0.90;;;22.40;49.30;;;;;;5015794;28;20220;-93
2022/05/28 08:18:53;;;;;;;2.27;1.20;;;22.50;49.20;;;;;;5014780;28;20212;-93
2022/05/28 08:24:05;;;;;;;2.23;0.93;;;22.70;48.80;;;;;;5035026;28;20183;-93
2022/05/28 08:26:33;;;;;;;3.10;1.20;;;22.70;48.90;;;;;;5016863;28;20299;-93
2022/05/28 08:28:59;;;;;;;1.93;1.20;;;22.50;48.90;;;;;;5015231;28;20338;-93
2022/05/28 08:31:24;;;;;;;1.87;1.00;;;22.40;49.20;;;;;;5014059;28;20203;-93
2022/05/28 08:33:51;;;;;;;3.80;1.30;;;22.20;49.40;;;;;;5014594;28;20560;-93
2022/05/28 08:36:18;;;;;;;2.30;1.00;;;22.10;49.60;;;;;;5022316;28;20207;-93
2022/05/28 08:38:44;;;;;;;4.30;1.10;;;22.00;49.90;;;;;;5016883;28;20634;-93
2022/05/28 08:41:52;;;;;;;4.67;1.30;;;22.00;49.90;;;;;;5019620;28;20184;-93
2022/05/28 08:44:25;;;;;;;4.63;1.47;;;21.90;49.90;;;;;;5016197;28;20269;-93
2022/05/28 08:46:55;;;;;;;2.47;1.20;;;21.90;50.00;;;;;;5015988;28;20275;-93
2022/05/28 08:49:27;;;;;;;1.83;1.10;;;21.90;50.10;;;;;;5015291;28;20173;-92
2022/05/28 08:52:03;;;;;;;2.23;0.90;;;22.10;50.00;;;;;;5016829;28;20169;-92
2022/05/28 08:54:38;;;;;;;2.03;1.23;;;22.30;49.70;;;;;;5022748;28;20180;-93
2022/05/28 08:57:15;;;;;;;3.13;1.30;;;22.50;49.40;;;;;;5020783;28;20180;-93
2022/05/28 09:00:10;;;;;;;3.03;1.30;;;22.60;49.20;;;;;;5020945;28;20192;-93
2022/05/28 09:02:39;;;;;;;3.73;1.30;;;22.70;49.00;;;;;;5001898;28;20263;-94
2022/05/28 09:05:17;;;;;;;3.07;1.20;;;22.80;48.90;;;;;;5021719;28;20181;-93
2022/05/28 09:07:43;;;;;;;6.20;1.40;;;22.90;48.90;;;;;;5038385;28;20208;-93
2022/05/28 09:10:10;;;;;;;2.67;1.40;;;22.90;48.80;;;;;;5025106;28;20456;-95
2022/05/28 09:12:48;;;;;;;5.43;1.40;;;22.90;48.70;;;;;;5022768;28;20196;-94
2022/05/28 09:15:14;;;;;;;8.05;1.60;;;22.90;48.60;;;;;;5021535;28;20226;-94
2022/05/28 09:17:44;;;;;;;3.47;1.65;;;23.00;48.60;;;;;;5023994;28;20177;-93
2022/05/28 09:20:14;;;;;;;4.57;1.40;;;23.00;48.50;;;;;;5021308;28;20173;-94
2022/05/28 09:22:40;;;;;;;7.55;1.70;;;23.00;48.40;;;;;;5017818;28;20177;-94
2022/05/28 09:25:07;;;;;;;4.40;1.70;;;22.90;48.50;;;;;;5028354;28;20192;-94
2022/05/28 09:27:51;;;;;;;4.67;1.67;;;22.80;48.60;;;;;;5024473;28;20215;-94
2022/05/28 09:31:02;;;;;;;10.33;1.60;;;22.70;48.70;;;;;;5025750;28;20221;-94
2022/05/28 09:33:46;;;;;;;8.77;1.80;;;22.50;48.80;;;;;;4928787;29;20183;-94
2022/05/28 09:36:26;;;;;;;11.50;1.83;;;22.40;48.90;;;;;;5020221;28;20195;-93
2022/05/28 09:39:01;;;;;;;7.93;1.77;;;22.40;49.00;;;;;;5030154;28;20522;-92
2022/05/28 09:41:33;;;;;;;5.30;1.63;;;22.40;49.10;;;;;;5015676;28;20187;-93
2022/05/28 09:44:16;;;;;;;4.90;1.60;;;22.30;49.20;;;;;;5032008;28;20173;-93
2022/05/28 09:46:43;;;;;;;3.77;1.50;;;22.50;49.20;;;;;;5045590;28;20208;-94
2022/05/28 09:49:12;;;;;;;3.93;1.60;;;22.60;49.10;;;;;;5023320;28;20441;-93
2022/05/28 09:51:38;;;;;;;4.40;1.23;;;22.60;49.00;;;;;;5037135;28;20169;-93
2022/05/28 09:54:23;;;;;;;2.67;1.30;;;22.60;48.90;;;;;;5016470;28;20242;-93
2022/05/28 09:57:00;;;;;;;3.33;1.40;;;22.60;48.90;;;;;;5013736;28;20180;-94
2022/05/28 09:59:49;;;;;;;3.63;1.43;;;22.60;48.90;;;;;;5019187;28;20184;-93
2022/05/28 10:02:23;;;;;;;6.47;1.70;;;22.50;48.90;;;;;;5033669;28;20177;-93
2022/05/28 10:05:11;;;;;;;3.70;1.20;;;22.40;48.90;;;;;;5029321;28;20326;-93
2022/05/28 10:07:49;;;;;;;2.63;1.27;;;22.50;49.00;;;;;;5015414;28;20204;-92
2022/05/28 10:10:23;;;;;;;6.20;1.40;;;22.40;48.90;;;;;;5016998;28;20176;-93
2022/05/28 10:12:50;;;;;;;5.00;1.30;;;22.40;48.90;;;;;;5031337;28;20580;-93
2022/05/28 10:15:28;;;;;;;2.40;1.37;;;22.40;48.90;;;;;;5009230;28;20179;-93
2022/05/28 10:18:03;;;;;;;4.27;1.40;;;22.30;48.90;;;;;;5011371;28;20169;-92
2022/05/28 10:24:37;;;;;;;3.00;1.33;;;22.30;49.00;;;;;;5029217;28;20331;-93
2022/05/28 10:27:03;;;;;;;6.47;1.43;;;22.30;49.00;;;;;;5018477;28;20216;-93
2022/05/28 10:29:38;;;;;;;2.30;1.37;;;22.30;49.00;;;;;;5020596;28;20176;-93
2022/05/28 10:32:34;;;;;;;3.10;1.30;;;22.20;49.00;;;;;;5015040;28;20173;-93
2022/05/28 10:35:28;;;;;;;3.00;1.30;;;22.20;49.00;;;;;;5006294;28;20225;-93
2022/05/28 10:38:05;;;;;;;4.43;1.50;;;22.20;49.00;;;;;;5022428;28;20198;-93
2022/05/28 10:40:31;;;;;;;4.67;1.40;;;22.20;49.00;;;;;;5014791;28;20176;-93
2022/05/28 10:43:03;;;;;;;4.80;1.40;;;22.30;49.00;;;;;;5004734;28;20184;-93
2022/05/28 10:45:44;;;;;;;3.47;1.40;;;22.30;49.00;;;;;;5015167;28;20186;-93
2022/05/28 10:52:06;;;;;;;7.77;1.97;;;22.30;49.10;;;;;;5023654;28;20498;-93
2022/05/28 10:55:01;;;;;;;8.63;1.63;;;22.30;49.40;;;;;;5005594;28;20192;-93
2022/05/28 10:57:33;;;;;;;4.00;1.50;;;22.30;49.30;;;;;;5003443;28;20183;-92
2022/05/28 11:00:17;;;;;;;5.30;1.60;;;22.30;49.20;;;;;;5030437;28;20300;-92
2022/05/28 11:06:52;;;;;;;7.70;1.60;;;22.20;49.20;;;;;;5023151;28;20218;-93
2022/05/28 11:13:18;;;;;;;2.53;1.40;;;22.20;49.10;;;;;;5015874;28;20222;-93
2022/05/28 11:15:52;;;;;;;5.23;1.40;;;22.30;49.10;;;;;;5025007;28;20230;-93
2022/05/28 11:18:59;;;;;;;4.70;1.67;;;22.20;49.00;;;;;;5020012;28;20190;-92
2022/05/28 11:22:11;;;;;;;5.63;1.80;;;22.20;49.00;;;;;;5033601;28;20179;-93
2022/05/28 11:24:55;;;;;;;3.27;1.50;;;22.20;49.00;;;;;;5008441;28;20185;-93
2022/05/28 11:44:37;;;;;;;3.97;1.50;;;22.20;48.90;;;;;;4921820;29;20291;-92
2022/05/28 11:47:19;;;;;;;2.63;1.30;;;22.30;48.90;;;;;;4922576;29;20208;-93
2022/05/28 11:53:42;;;;;;;3.60;1.43;;;22.30;48.90;;;;;;5019925;28;20217;-93
2022/05/28 12:06:24;;;;;;;3.00;1.30;;;22.20;48.90;;;;;;5025322;28;20260;-93
2022/05/28 12:09:01;;;;;;;2.93;1.40;;;22.20;48.90;;;;;;5007618;28;20180;-93
2022/05/28 12:11:30;;;;;;;5.00;1.63;;;22.20;48.80;;;;;;5004818;28;20173;-93
2022/05/28 12:14:01;;;;;;;2.37;1.00;;;22.30;48.90;;;;;;5028066;28;20447;-94
2022/05/28 12:16:31;;;;;;;2.97;1.27;;;22.30;48.90;;;;;;5010182;28;20191;-93
2022/05/28 12:19:18;;;;;;;2.43;1.50;;;22.30;48.90;;;;;;5032466;28;20171;-93
2022/05/28 12:21:45;;;;;;;4.17;1.30;;;22.30;48.90;;;;;;4992954;28;20375;-92
2022/05/28 12:24:14;;;;;;;3.17;1.27;;;22.30;48.80;;;;;;5002927;28;20188;-92
2022/05/28 12:29:34;;;;;;;3.77;1.30;;;22.30;48.70;;;;;;5019444;28;20750;-93
2022/05/28 12:32:18;;;;;;;3.83;1.47;;;22.30;48.70;;;;;;5026523;28;20173;-93
2022/05/28 12:35:23;;;;;;;2.17;1.20;;;22.30;48.70;;;;;;5023286;28;20169;-92
2022/05/28 12:38:16;;;;;;;3.53;1.50;;;22.30;48.80;;;;;;5007310;28;20406;-93
2022/05/28 12:40:55;;;;;;;3.10;1.20;;;22.30;48.80;;;;;;5018218;28;20188;-92
2022/05/28 12:43:34;;;;;;;3.67;1.40;;;22.30;48.80;;;;;;5014076;28;20177;-94
2022/05/28 12:46:39;;;;;;;2.73;1.27;;;22.30;49.20;;;;;;5013302;28;20212;-92
2022/05/28 12:49:29;;;;;;;2.00;1.30;;;22.20;48.80;;;;;;5010863;28;20208;-93
2022/05/28 13:02:04;;;;;;;2.47;1.37;;;22.30;48.80;;;;;;5023286;28;20620;-92
2022/05/28 13:04:40;;;;;;;2.90;1.40;;;22.30;48.70;;;;;;5030641;28;20182;-92
2022/05/28 13:07:21;;;;;;;3.37;1.37;;;22.30;48.80;;;;;;5016475;28;20209;-92
2022/05/28 13:10:32;;;;;;;3.67;1.60;;;22.30;48.70;;;;;;5028635;28;20178;-92
2022/05/28 13:13:19;;;;;;;2.57;1.40;;;22.30;48.80;;;;;;4955531;28;20192;-93
2022/05/28 13:16:12;;;;;;;2.37;1.20;;;22.30;48.70;;;;;;5037962;28;20177;-93
2022/05/28 13:19:16;;;;;;;2.07;1.30;;;22.30;48.70;;;;;;5035278;28;20424;-93
2022/05/28 13:21:44;;;;;;;3.33;1.40;;;22.30;48.70;;;;;;5014915;28;20177;-93
2022/05/28 13:24:48;;;;;;;3.23;1.20;;;22.30;48.70;;;;;;5029140;28;20247;-93
2022/05/28 13:27:33;;;;;;;2.90;1.40;;;22.30;48.60;;;;;;5028234;28;20208;-92
2022/05/28 13:30:18;;;;;;;3.33;1.63;;;22.30;48.60;;;;;;5036471;28;20174;-93
2022/05/28 13:33:16;;;;;;;1.97;1.20;;;22.30;48.50;;;;;;5021222;28;20198;-93
2022/05/28 13:35:50;;;;;;;3.93;1.50;;;22.30;48.50;;;;;;5010637;28;20215;-93
2022/05/28 13:38:22;;;;;;;3.70;1.43;;;22.40;48.40;;;;;;5011534;28;20590;-93
2022/05/28 13:40:55;;;;;;;3.00;1.20;;;22.40;48.40;;;;;;5003977;28;20199;-94
2022/05/28 13:43:26;;;;;;;3.80;1.40;;;22.30;48.40;;;;;;5013145;28;20166;-93
2022/05/28 13:46:00;;;;;;;3.70;1.30;;;22.30;48.40;;;;;;5023457;28;20236;-93
2022/05/28 13:51:59;;;;;;;4.63;1.40;;;22.30;48.40;;;;;;5037781;28;20218;-93
2022/05/28 13:57:47;;;;;;;2.93;1.27;;;22.30;48.40;;;;;;5034818;28;20227;-92
2022/05/28 14:00:28;;;;;;;2.57;1.33;;;22.30;48.40;;;;;;5015175;28;20371;-93
2022/05/28 14:03:02;;;;;;;3.83;1.30;;;22.30;48.30;;;;;;5012832;28;20255;-92
2022/05/28 14:08:53;;;;;;;2.00;1.07;;;22.30;48.30;;;;;;5027683;28;20660;-93
2022/05/28 14:11:21;;;;;;;2.73;1.40;;;22.30;48.30;;;;;;5013255;28;20169;-92
2022/05/28 14:13:57;;;;;;;3.03;1.60;;;22.30;48.20;;;;;;5013425;28;20180;-93
2022/05/28 14:16:59;;;;;;;1.77;1.27;;;22.30;48.20;;;;;;5018330;28;20189;-93
2022/05/28 14:19:29;;;;;;;2.90;1.33;;;22.30;48.20;;;;;;4934686;29;20283;-92
2022/05/28 14:22:00;;;;;;;2.93;1.50;;;22.30;48.20;;;;;;5010888;28;20316;-94
2022/05/28 14:24:33;;;;;;;3.70;1.30;;;22.30;48.20;;;;;;5017698;28;20169;-93
2022/05/28 14:32:46;;;;;;;2.40;1.50;;;22.40;48.10;;;;;;5018083;28;20251;-93
2022/05/28 14:35:37;;;;;;;2.83;1.50;;;22.40;48.10;;;;;;5002252;28;20229;-93
2022/05/28 14:38:06;;;;;;;3.27;1.40;;;22.40;48.10;;;;;;5017879;28;20708;-93
2022/05/28 14:40:34;;;;;;;2.47;1.47;;;22.40;48.10;;;;;;5008360;28;20181;-93
2022/05/28 14:43:02;;;;;;;4.20;1.47;;;22.40;48.10;;;;;;5015045;28;20169;-93
2022/05/28 14:45:31;;;;;;;3.63;1.50;;;22.40;48.10;;;;;;5016237;28;20225;-92
2022/05/28 14:48:01;;;;;;;3.27;1.57;;;22.40;48.10;;;;;;5015414;28;20273;-92
2022/05/28 14:50:42;;;;;;;3.30;1.70;;;22.40;48.10;;;;;;5019394;28;20176;-92
2022/05/28 14:53:13;;;;;;;4.40;1.60;;;22.40;48.10;;;;;;5032036;28;20177;-93
2022/05/28 14:55:38;;;;;;;4.00;1.57;;;22.40;48.20;;;;;;5018648;28;20173;-93
2022/05/28 14:58:18;;;;;;;4.50;1.60;;;22.40;48.20;;;;;;5012075;28;20173;-92
2022/05/28 15:00:44;;;;;;;3.53;1.80;;;22.40;48.30;;;;;;5014002;28;20177;-93
2022/05/28 15:03:27;;;;;;;3.43;1.40;;;22.40;48.20;;;;;;5012034;28;20275;-92
2022/05/28 15:05:54;;;;;;;3.93;1.63;;;22.40;48.20;;;;;;5014807;28;20274;-93
2022/05/28 15:08:23;;;;;;;3.27;1.70;;;22.40;48.20;;;;;;5014632;28;20173;-93
2022/05/28 15:10:53;;;;;;;3.83;1.43;;;22.40;48.10;;;;;;5014545;28;20379;-93
2022/05/28 15:13:32;;;;;;;3.27;1.70;;;22.40;48.10;;;;;;5015330;28;20175;-93
2022/05/28 15:16:00;;;;;;;2.63;1.43;;;22.40;48.20;;;;;;5015366;28;20189;-93
2022/05/28 15:18:28;;;;;;;3.43;1.67;;;22.40;48.30;;;;;;5010854;28;20267;-92
2022/05/28 15:20:58;;;;;;;3.20;1.60;;;22.40;48.30;;;;;;5007282;28;20165;-93
2022/05/28 15:23:24;;;;;;;2.40;1.40;;;22.40;48.30;;;;;;5012949;28;20187;-91
2022/05/28 15:25:50;;;;;;;3.17;1.40;;;22.40;48.30;;;;;;5015501;28;20441;-92
2022/05/28 15:28:18;;;;;;;2.73;1.63;;;22.40;48.30;;;;;;5012479;28;20461;-93
2022/05/28 15:30:44;;;;;;;4.27;1.50;;;22.40;48.30;;;;;;5015435;28;20199;-93
2022/05/28 15:33:22;;;;;;;2.40;1.40;;;22.40;48.30;;;;;;5014467;28;20169;-92
2022/05/28 15:38:31;;;;;;;2.17;1.30;;;22.40;48.20;;;;;;5032965;28;20314;-93
2022/05/28 15:41:05;;;;;;;3.37;1.50;;;22.40;48.10;;;;;;5016314;28;20270;-92